sensor_id;sensor_type;location;lat;lon;timestamp;P1;durP1;ratioP1;P2;durP2;ratioP2
22046;SDS011;11187;49.412;20.956;2022-09-28T00:00:31;34.22;;;31.73;;
22046;SDS011;11187;49.412;20.956;2022-09-28T00:03:28;34.45;;;32.20;;
22046;SDS011;11187;49.412;20.956;2022-09-28T00:06:22;32.40;;;30.35;;
22046;SDS011;11187;49.412;20.956;2022-09-28T00:08:57;33.67;;;31.52;;
22046;SDS011;11187;49.412;20.956;2022-09-28T00:11:51;34.33;;;32.13;;
22046;SDS011;11187;49.412;20.956;2022-09-28T00:14:46;35.13;;;32.40;;
22046;SDS011;11187;49.412;20.956;2022-09-28T00:17:19;35.60;;;32.88;;
22046;SDS011;11187;49.412;20.956;2022-09-28T00:20:06;34.13;;;31.92;;
22046;SDS011;11187;49.412;20.956;2022-09-28T00:22:39;33.85;;;31.60;;
22046;SDS011;11187;49.412;20.956;2022-09-28T00:25:33;32.50;;;30.50;;
22046;SDS011;11187;49.412;20.956;2022-09-28T00:28:27;33.90;;;31.67;;
22046;SDS011;11187;49.412;20.956;2022-09-28T00:31:00;33.08;;;30.88;;
22046;SDS011;11187;49.412;20.956;2022-09-28T00:33:54;32.22;;;30.23;;
22046;SDS011;11187;49.412;20.956;2022-09-28T00:36:50;32.05;;;30.15;;
22046;SDS011;11187;49.412;20.956;2022-09-28T00:39:23;32.65;;;30.55;;
22046;SDS011;11187;49.412;20.956;2022-09-28T00:42:22;33.20;;;30.90;;
22046;SDS011;11187;49.412;20.956;2022-09-28T00:45:18;33.70;;;31.10;;
22046;SDS011;11187;49.412;20.956;2022-09-28T00:48:12;33.83;;;31.42;;
22046;SDS011;11187;49.412;20.956;2022-09-28T00:51:07;34.67;;;32.38;;
22046;SDS011;11187;49.412;20.956;2022-09-28T00:53:43;34.08;;;31.80;;
22046;SDS011;11187;49.412;20.956;2022-09-28T00:56:32;33.90;;;31.73;;
22046;SDS011;11187;49.412;20.956;2022-09-28T00:59:08;33.72;;;31.17;;
22046;SDS011;11187;49.412;20.956;2022-09-28T01:01:56;33.28;;;30.90;;
22046;SDS011;11187;49.412;20.956;2022-09-28T01:04:29;33.80;;;31.20;;
22046;SDS011;11187;49.412;20.956;2022-09-28T01:07:17;34.35;;;32.03;;
22046;SDS011;11187;49.412;20.956;2022-09-28T01:09:50;32.67;;;30.67;;
22046;SDS011;11187;49.412;20.956;2022-09-28T01:12:37;32.53;;;30.42;;
22046;SDS011;11187;49.412;20.956;2022-09-28T01:15:10;31.05;;;29.15;;
22046;SDS011;11187;49.412;20.956;2022-09-28T01:18:06;32.58;;;30.48;;
22046;SDS011;11187;49.412;20.956;2022-09-28T01:21:30;32.00;;;29.92;;
22046;SDS011;11187;49.412;20.956;2022-09-28T01:27:51;30.42;;;28.65;;
22046;SDS011;11187;49.412;20.956;2022-09-28T01:33:49;30.65;;;28.55;;
22046;SDS011;11187;49.412;20.956;2022-09-28T01:36:43;30.88;;;28.58;;
22046;SDS011;11187;49.412;20.956;2022-09-28T01:39:22;31.10;;;28.90;;
22046;SDS011;11187;49.412;20.956;2022-09-28T01:42:30;29.58;;;27.80;;
22046;SDS011;11187;49.412;20.956;2022-09-28T01:45:36;28.08;;;26.30;;
22046;SDS011;11187;49.412;20.956;2022-09-28T01:48:16;28.70;;;27.00;;
22046;SDS011;11187;49.412;20.956;2022-09-28T01:51:09;29.38;;;27.45;;
22046;SDS011;11187;49.412;20.956;2022-09-28T01:53:51;28.90;;;26.65;;
22046;SDS011;11187;49.412;20.956;2022-09-28T01:56:43;29.35;;;27.45;;
22046;SDS011;11187;49.412;20.956;2022-09-28T01:59:24;28.70;;;26.75;;
22046;SDS011;11187;49.412;20.956;2022-09-28T02:02:18;29.30;;;27.50;;
22046;SDS011;11187;49.412;20.956;2022-09-28T02:05:00;28.52;;;26.83;;
22046;SDS011;11187;49.412;20.956;2022-09-28T02:11:19;28.58;;;26.70;;
22046;SDS011;11187;49.412;20.956;2022-09-28T02:14:07;27.58;;;25.85;;
22046;SDS011;11187;49.412;20.956;2022-09-28T02:16:44;27.58;;;25.67;;
22046;SDS011;11187;49.412;20.956;2022-09-28T02:19:33;29.23;;;27.23;;
22046;SDS011;11187;49.412;20.956;2022-09-28T02:22:11;28.42;;;25.90;;
22046;SDS011;11187;49.412;20.956;2022-09-28T02:25:04;25.17;;;23.67;;
22046;SDS011;11187;49.412;20.956;2022-09-28T02:27:47;24.58;;;23.17;;
22046;SDS011;11187;49.412;20.956;2022-09-28T02:30:48;21.15;;;19.95;;
22046;SDS011;11187;49.412;20.956;2022-09-28T02:33:42;19.77;;;18.48;;
22046;SDS011;11187;49.412;20.956;2022-09-28T02:36:16;20.70;;;19.10;;
22046;SDS011;11187;49.412;20.956;2022-09-28T02:39:03;20.30;;;18.95;;
22046;SDS011;11187;49.412;20.956;2022-09-28T02:41:39;21.10;;;19.65;;
22046;SDS011;11187;49.412;20.956;2022-09-28T02:44:39;20.85;;;19.45;;
22046;SDS011;11187;49.412;20.956;2022-09-28T03:00:02;19.70;;;18.38;;
22046;SDS011;11187;49.412;20.956;2022-09-28T03:02:53;20.58;;;19.27;;
22046;SDS011;11187;49.412;20.956;2022-09-28T03:06:06;17.38;;;16.27;;
22046;SDS011;11187;49.412;20.956;2022-09-28T03:09:06;18.08;;;16.98;;
22046;SDS011;11187;49.412;20.956;2022-09-28T03:12:08;19.88;;;18.50;;
22046;SDS011;11187;49.412;20.956;2022-09-28T03:15:26;17.80;;;16.80;;
22046;SDS011;11187;49.412;20.956;2022-09-28T03:18:00;18.17;;;17.10;;
22046;SDS011;11187;49.412;20.956;2022-09-28T03:20:47;17.65;;;16.65;;
22046;SDS011;11187;49.412;20.956;2022-09-28T03:23:21;16.60;;;15.60;;
22046;SDS011;11187;49.412;20.956;2022-09-28T03:26:11;17.15;;;15.98;;
22046;SDS011;11187;49.412;20.956;2022-09-28T03:28:45;20.42;;;19.02;;
22046;SDS011;11187;49.412;20.956;2022-09-28T03:31:32;19.77;;;18.42;;
22046;SDS011;11187;49.412;20.956;2022-09-28T03:34:05;19.33;;;18.13;;
22046;SDS011;11187;49.412;20.956;2022-09-28T03:36:52;19.70;;;18.30;;
22046;SDS011;11187;49.412;20.956;2022-09-28T03:39:25;20.55;;;19.02;;
22046;SDS011;11187;49.412;20.956;2022-09-28T03:42:19;17.45;;;16.08;;
22046;SDS011;11187;49.412;20.956;2022-09-28T03:45:13;19.70;;;18.23;;
22046;SDS011;11187;49.412;20.956;2022-09-28T03:48:07;20.23;;;18.92;;
22046;SDS011;11187;49.412;20.956;2022-09-28T03:50:40;19.40;;;18.10;;
22046;SDS011;11187;49.412;20.956;2022-09-28T03:53:34;18.88;;;17.67;;
22046;SDS011;11187;49.412;20.956;2022-09-28T03:56:29;19.13;;;17.40;;
22046;SDS011;11187;49.412;20.956;2022-09-28T03:59:02;19.98;;;18.23;;
22046;SDS011;11187;49.412;20.956;2022-09-28T04:01:50;19.58;;;17.88;;
22046;SDS011;11187;49.412;20.956;2022-09-28T04:04:23;18.25;;;16.75;;
22046;SDS011;11187;49.412;20.956;2022-09-28T04:07:10;19.55;;;17.88;;
22046;SDS011;11187;49.412;20.956;2022-09-28T04:09:43;19.08;;;17.73;;
22046;SDS011;11187;49.412;20.956;2022-09-28T04:12:30;18.77;;;17.38;;
22046;SDS011;11187;49.412;20.956;2022-09-28T04:15:03;17.10;;;15.95;;
22046;SDS011;11187;49.412;20.956;2022-09-28T04:17:50;18.20;;;16.75;;
22046;SDS011;11187;49.412;20.956;2022-09-28T04:20:23;18.10;;;16.83;;
22046;SDS011;11187;49.412;20.956;2022-09-28T04:23:10;18.10;;;16.88;;
22046;SDS011;11187;49.412;20.956;2022-09-28T04:25:50;19.58;;;18.17;;
22046;SDS011;11187;49.412;20.956;2022-09-28T04:28:37;18.20;;;17.00;;
22046;SDS011;11187;49.412;20.956;2022-09-28T04:34:35;19.05;;;17.50;;
22046;SDS011;11187;49.412;20.956;2022-09-28T04:37:09;18.30;;;16.55;;
22046;SDS011;11187;49.412;20.956;2022-09-28T04:40:03;16.33;;;15.02;;
22046;SDS011;11187;49.412;20.956;2022-09-28T04:42:36;15.95;;;14.85;;
22046;SDS011;11187;49.412;20.956;2022-09-28T04:45:30;15.20;;;14.10;;
22046;SDS011;11187;49.412;20.956;2022-09-28T04:48:24;15.77;;;14.68;;
22046;SDS011;11187;49.412;20.956;2022-09-28T04:51:01;15.10;;;14.10;;
22046;SDS011;11187;49.412;20.956;2022-09-28T04:53:55;19.65;;;18.25;;
22046;SDS011;11187;49.412;20.956;2022-09-28T04:56:28;18.70;;;17.40;;
22046;SDS011;11187;49.412;20.956;2022-09-28T04:59:15;20.55;;;19.15;;
22046;SDS011;11187;49.412;20.956;2022-09-28T05:01:48;18.73;;;17.52;;
22046;SDS011;11187;49.412;20.956;2022-09-28T05:04:42;16.88;;;15.60;;
22046;SDS011;11187;49.412;20.956;2022-09-28T05:07:36;14.95;;;13.68;;
22046;SDS011;11187;49.412;20.956;2022-09-28T05:10:09;17.80;;;16.40;;
22046;SDS011;11187;49.412;20.956;2022-09-28T05:12:57;19.10;;;17.42;;
22046;SDS011;11187;49.412;20.956;2022-09-28T05:15:30;19.65;;;18.02;;
22046;SDS011;11187;49.412;20.956;2022-09-28T05:18:17;16.05;;;14.85;;
22046;SDS011;11187;49.412;20.956;2022-09-28T05:20:50;16.65;;;15.45;;
22046;SDS011;11187;49.412;20.956;2022-09-28T05:23:37;17.92;;;16.63;;
22046;SDS011;11187;49.412;20.956;2022-09-28T05:26:11;15.05;;;13.95;;
22046;SDS011;11187;49.412;20.956;2022-09-28T05:29:05;18.17;;;16.88;;
22046;SDS011;11187;49.412;20.956;2022-09-28T05:31:59;16.58;;;15.07;;
22046;SDS011;11187;49.412;20.956;2022-09-28T05:34:33;17.95;;;16.42;;
22046;SDS011;11187;49.412;20.956;2022-09-28T05:37:20;16.45;;;15.07;;
22046;SDS011;11187;49.412;20.956;2022-09-28T05:39:53;16.10;;;14.88;;
22046;SDS011;11187;49.412;20.956;2022-09-28T05:42:40;17.20;;;15.85;;
22046;SDS011;11187;49.412;20.956;2022-09-28T05:45:27;19.65;;;18.25;;
22046;SDS011;11187;49.412;20.956;2022-09-28T05:48:22;14.70;;;13.60;;
22046;SDS011;11187;49.412;20.956;2022-09-28T05:50:55;15.90;;;14.85;;
22046;SDS011;11187;49.412;20.956;2022-09-28T05:53:49;17.48;;;16.17;;
22046;SDS011;11187;49.412;20.956;2022-09-28T05:56:29;15.90;;;14.80;;
22046;SDS011;11187;49.412;20.956;2022-09-28T05:59:23;17.52;;;16.33;;
22046;SDS011;11187;49.412;20.956;2022-09-28T06:01:56;18.80;;;17.50;;
22046;SDS011;11187;49.412;20.956;2022-09-28T06:04:50;16.83;;;15.63;;
22046;SDS011;11187;49.412;20.956;2022-09-28T06:07:23;15.38;;;14.18;;
22046;SDS011;11187;49.412;20.956;2022-09-28T06:10:10;16.70;;;15.50;;
22046;SDS011;11187;49.412;20.956;2022-09-28T06:12:43;13.82;;;12.82;;
22046;SDS011;11187;49.412;20.956;2022-09-28T06:15:37;15.10;;;14.00;;
22046;SDS011;11187;49.412;20.956;2022-09-28T06:18:34;13.35;;;12.45;;
22046;SDS011;11187;49.412;20.956;2022-09-28T06:21:07;13.68;;;12.77;;
22046;SDS011;11187;49.412;20.956;2022-09-28T06:24:01;15.68;;;14.68;;
22046;SDS011;11187;49.412;20.956;2022-09-28T06:26:35;16.02;;;14.93;;
22046;SDS011;11187;49.412;20.956;2022-09-28T06:29:29;13.48;;;12.52;;
22046;SDS011;11187;49.412;20.956;2022-09-28T06:32:05;14.27;;;13.18;;
22046;SDS011;11187;49.412;20.956;2022-09-28T06:34:52;15.07;;;14.07;;
22046;SDS011;11187;49.412;20.956;2022-09-28T06:37:25;15.05;;;13.90;;
22046;SDS011;11187;49.412;20.956;2022-09-28T06:40:12;14.50;;;13.48;;
22046;SDS011;11187;49.412;20.956;2022-09-28T06:45:55;15.52;;;14.38;;
22046;SDS011;11187;49.412;20.956;2022-09-28T06:48:28;16.20;;;15.00;;
22046;SDS011;11187;49.412;20.956;2022-09-28T06:51:22;15.70;;;14.50;;
22046;SDS011;11187;49.412;20.956;2022-09-28T06:53:56;14.75;;;13.55;;
22046;SDS011;11187;49.412;20.956;2022-09-28T06:56:43;16.23;;;15.02;;
22046;SDS011;11187;49.412;20.956;2022-09-28T06:59:19;16.50;;;15.23;;
22046;SDS011;11187;49.412;20.956;2022-09-28T07:02:07;14.70;;;13.15;;
22046;SDS011;11187;49.412;20.956;2022-09-28T07:04:48;14.77;;;13.75;;
22046;SDS011;11187;49.412;20.956;2022-09-28T07:07:42;18.65;;;17.17;;
22046;SDS011;11187;49.412;20.956;2022-09-28T07:10:39;16.35;;;15.25;;
22046;SDS011;11187;49.412;20.956;2022-09-28T07:13:41;16.42;;;15.32;;
22046;SDS011;11187;49.412;20.956;2022-09-28T07:16:16;14.52;;;13.57;;
22046;SDS011;11187;49.412;20.956;2022-09-28T07:19:08;16.38;;;15.15;;
22046;SDS011;11187;49.412;20.956;2022-09-28T07:21:41;17.63;;;16.42;;
22046;SDS011;11187;49.412;20.956;2022-09-28T07:24:35;16.10;;;14.50;;
22046;SDS011;11187;49.412;20.956;2022-09-28T07:27:15;16.15;;;14.85;;
22046;SDS011;11187;49.412;20.956;2022-09-28T07:30:00;16.63;;;15.40;;
22046;SDS011;11187;49.412;20.956;2022-09-28T07:32:40;14.73;;;13.70;;
22046;SDS011;11187;49.412;20.956;2022-09-28T07:35:21;17.08;;;15.60;;
22046;SDS011;11187;49.412;20.956;2022-09-28T07:38:05;17.63;;;16.42;;
22046;SDS011;11187;49.412;20.956;2022-09-28T07:40:39;18.40;;;17.20;;
22046;SDS011;11187;49.412;20.956;2022-09-28T07:43:45;16.63;;;15.48;;
22046;SDS011;11187;49.412;20.956;2022-09-28T07:46:40;14.90;;;13.68;;
22046;SDS011;11187;49.412;20.956;2022-09-28T07:49:34;17.75;;;16.45;;
22046;SDS011;11187;49.412;20.956;2022-09-28T07:52:28;14.45;;;13.45;;
22046;SDS011;11187;49.412;20.956;2022-09-28T07:55:01;14.73;;;13.73;;
22046;SDS011;11187;49.412;20.956;2022-09-28T07:57:53;17.23;;;16.17;;
22046;SDS011;11187;49.412;20.956;2022-09-28T08:00:27;15.02;;;14.10;;
22046;SDS011;11187;49.412;20.956;2022-09-28T08:03:18;18.83;;;17.63;;
22046;SDS011;11187;49.412;20.956;2022-09-28T08:05:58;16.55;;;15.45;;
22046;SDS011;11187;49.412;20.956;2022-09-28T08:08:51;16.35;;;15.35;;
22046;SDS011;11187;49.412;20.956;2022-09-28T08:11:27;13.95;;;12.90;;
22046;SDS011;11187;49.412;20.956;2022-09-28T08:14:15;16.17;;;14.77;;
22046;SDS011;11187;49.412;20.956;2022-09-28T08:16:48;17.10;;;15.70;;
22046;SDS011;11187;49.412;20.956;2022-09-28T08:19:35;16.67;;;15.68;;
22046;SDS011;11187;49.412;20.956;2022-09-28T08:22:26;15.68;;;14.68;;
22046;SDS011;11187;49.412;20.956;2022-09-28T08:25:13;14.60;;;13.60;;
22046;SDS011;11187;49.412;20.956;2022-09-28T08:27:46;15.07;;;14.18;;
22046;SDS011;11187;49.412;20.956;2022-09-28T08:30:33;13.40;;;12.60;;
22046;SDS011;11187;49.412;20.956;2022-09-28T08:33:06;15.40;;;14.23;;
22046;SDS011;11187;49.412;20.956;2022-09-28T08:35:54;16.88;;;15.52;;
22046;SDS011;11187;49.412;20.956;2022-09-28T08:38:29;13.00;;;12.20;;
22046;SDS011;11187;49.412;20.956;2022-09-28T08:44:00;14.65;;;13.70;;
22046;SDS011;11187;49.412;20.956;2022-09-28T08:46:57;15.23;;;14.23;;
22046;SDS011;11187;49.412;20.956;2022-09-28T08:49:37;13.55;;;12.45;;
22046;SDS011;11187;49.412;20.956;2022-09-28T08:52:31;15.18;;;14.27;;
22046;SDS011;11187;49.412;20.956;2022-09-28T08:58:12;15.10;;;14.00;;
22046;SDS011;11187;49.412;20.956;2022-09-28T09:00:50;14.77;;;13.77;;
22046;SDS011;11187;49.412;20.956;2022-09-28T09:03:38;15.65;;;14.70;;
22046;SDS011;11187;49.412;20.956;2022-09-28T09:12:25;16.13;;;15.23;;
22046;SDS011;11187;49.412;20.956;2022-09-28T09:15:20;14.90;;;14.00;;
22046;SDS011;11187;49.412;20.956;2022-09-28T09:18:24;13.93;;;13.07;;
22046;SDS011;11187;49.412;20.956;2022-09-28T09:30:11;15.55;;;14.55;;
22046;SDS011;11187;49.412;20.956;2022-09-28T09:36:33;13.70;;;12.82;;
22046;SDS011;11187;49.412;20.956;2022-09-28T09:44:54;14.13;;;13.23;;
22046;SDS011;11187;49.412;20.956;2022-09-28T09:48:02;14.15;;;13.27;;
22046;SDS011;11187;49.412;20.956;2022-09-28T09:50:45;16.15;;;15.10;;
22046;SDS011;11187;49.412;20.956;2022-09-28T09:53:37;14.50;;;13.60;;
22046;SDS011;11187;49.412;20.956;2022-09-28T09:56:17;13.00;;;12.10;;
22046;SDS011;11187;49.412;20.956;2022-09-28T09:59:18;14.80;;;13.90;;
22046;SDS011;11187;49.412;20.956;2022-09-28T10:01:55;14.35;;;13.45;;
22046;SDS011;11187;49.412;20.956;2022-09-28T10:04:42;15.48;;;14.48;;
22046;SDS011;11187;49.412;20.956;2022-09-28T10:07:27;15.63;;;14.70;;
22046;SDS011;11187;49.412;20.956;2022-09-28T10:10:35;16.80;;;15.85;;
22046;SDS011;11187;49.412;20.956;2022-09-28T10:13:10;14.30;;;13.30;;
22046;SDS011;11187;49.412;20.956;2022-09-28T10:16:04;13.23;;;12.43;;
22046;SDS011;11187;49.412;20.956;2022-09-28T10:18:59;14.05;;;13.25;;
22046;SDS011;11187;49.412;20.956;2022-09-28T10:21:53;13.77;;;12.88;;
22046;SDS011;11187;49.412;20.956;2022-09-28T10:27:28;14.50;;;13.60;;
22046;SDS011;11187;49.412;20.956;2022-09-28T10:30:24;12.15;;;11.10;;
22046;SDS011;11187;49.412;20.956;2022-09-28T10:32:57;11.85;;;11.15;;
22046;SDS011;11187;49.412;20.956;2022-09-28T10:35:44;14.10;;;13.30;;
22046;SDS011;11187;49.412;20.956;2022-09-28T10:38:22;12.38;;;11.68;;
22046;SDS011;11187;49.412;20.956;2022-09-28T10:41:15;15.10;;;14.13;;
22046;SDS011;11187;49.412;20.956;2022-09-28T10:44:10;11.75;;;11.05;;
22046;SDS011;11187;49.412;20.956;2022-09-28T10:47:12;13.20;;;12.18;;
22046;SDS011;11187;49.412;20.956;2022-09-28T10:49:49;12.27;;;11.57;;
22046;SDS011;11187;49.412;20.956;2022-09-28T10:52:31;13.25;;;12.45;;
22046;SDS011;11187;49.412;20.956;2022-09-28T10:57:59;14.05;;;13.25;;
22046;SDS011;11187;49.412;20.956;2022-09-28T11:00:46;15.20;;;14.20;;
22046;SDS011;11187;49.412;20.956;2022-09-28T11:03:24;13.18;;;12.07;;
22046;SDS011;11187;49.412;20.956;2022-09-28T11:06:24;13.60;;;12.80;;
22046;SDS011;11187;49.412;20.956;2022-09-28T11:09:22;14.07;;;13.20;;
22046;SDS011;11187;49.412;20.956;2022-09-28T11:12:02;13.75;;;12.95;;
22046;SDS011;11187;49.412;20.956;2022-09-28T11:14:55;13.50;;;12.70;;
22046;SDS011;11187;49.412;20.956;2022-09-28T11:17:38;14.88;;;14.07;;
22046;SDS011;11187;49.412;20.956;2022-09-28T11:20:32;13.40;;;12.60;;
22046;SDS011;11187;49.412;20.956;2022-09-28T11:23:29;13.32;;;12.52;;
22046;SDS011;11187;49.412;20.956;2022-09-28T11:26:23;12.68;;;11.98;;
22046;SDS011;11187;49.412;20.956;2022-09-28T11:30:00;13.25;;;12.45;;
22046;SDS011;11187;49.412;20.956;2022-09-28T11:32:15;12.60;;;11.70;;
22046;SDS011;11187;49.412;20.956;2022-09-28T11:35:02;13.60;;;12.80;;
22046;SDS011;11187;49.412;20.956;2022-09-28T11:56:39;14.75;;;13.85;;
22046;SDS011;11187;49.412;20.956;2022-09-28T11:59:17;15.73;;;14.82;;
22046;SDS011;11187;49.412;20.956;2022-09-28T12:04:51;13.30;;;12.50;;
22046;SDS011;11187;49.412;20.956;2022-09-28T12:08:06;12.55;;;11.75;;
22046;SDS011;11187;49.412;20.956;2022-09-28T12:13:39;18.60;;;17.00;;
22046;SDS011;11187;49.412;20.956;2022-09-28T12:16:18;17.25;;;16.08;;
22046;SDS011;11187;49.412;20.956;2022-09-28T12:19:50;14.75;;;13.75;;
22046;SDS011;11187;49.412;20.956;2022-09-28T12:22:47;15.82;;;14.73;;
22046;SDS011;11187;49.412;20.956;2022-09-28T12:25:36;12.77;;;11.98;;
22046;SDS011;11187;49.412;20.956;2022-09-28T12:28:39;14.13;;;13.32;;
22046;SDS011;11187;49.412;20.956;2022-09-28T12:34:12;15.70;;;14.70;;
22046;SDS011;11187;49.412;20.956;2022-09-28T12:49:01;14.27;;;13.43;;
22046;SDS011;11187;49.412;20.956;2022-09-28T13:07:16;14.55;;;13.75;;
22046;SDS011;11187;49.412;20.956;2022-09-28T13:10:35;16.88;;;15.88;;
22046;SDS011;11187;49.412;20.956;2022-09-28T13:16:27;14.63;;;13.63;;
22046;SDS011;11187;49.412;20.956;2022-09-28T13:19:32;13.18;;;12.38;;
22046;SDS011;11187;49.412;20.956;2022-09-28T13:25:22;13.40;;;12.50;;
22046;SDS011;11187;49.412;20.956;2022-09-28T13:28:14;13.07;;;12.32;;
22046;SDS011;11187;49.412;20.956;2022-09-28T13:30:53;15.63;;;14.73;;
22046;SDS011;11187;49.412;20.956;2022-09-28T13:33:49;14.30;;;13.48;;
22046;SDS011;11187;49.412;20.956;2022-09-28T13:36:44;12.43;;;11.73;;
22046;SDS011;11187;49.412;20.956;2022-09-28T13:42:22;16.85;;;15.85;;
22046;SDS011;11187;49.412;20.956;2022-09-28T13:45:22;14.88;;;14.05;;
22046;SDS011;11187;49.412;20.956;2022-09-28T13:48:44;13.95;;;13.15;;
22046;SDS011;11187;49.412;20.956;2022-09-28T14:02:44;13.20;;;12.40;;
22046;SDS011;11187;49.412;20.956;2022-09-28T14:05:43;14.18;;;13.38;;
22046;SDS011;11187;49.412;20.956;2022-09-28T14:08:43;11.30;;;10.60;;
22046;SDS011;11187;49.412;20.956;2022-09-28T14:11:57;14.18;;;13.38;;
22046;SDS011;11187;49.412;20.956;2022-09-28T14:17:50;13.98;;;13.18;;
22046;SDS011;11187;49.412;20.956;2022-09-28T14:20:29;14.35;;;13.45;;
22046;SDS011;11187;49.412;20.956;2022-09-28T14:26:28;13.18;;;12.35;;
22046;SDS011;11187;49.412;20.956;2022-09-28T14:29:31;13.80;;;13.00;;
22046;SDS011;11187;49.412;20.956;2022-09-28T14:35:24;13.77;;;12.77;;
22046;SDS011;11187;49.412;20.956;2022-09-28T14:38:45;14.32;;;13.52;;
22046;SDS011;11187;49.412;20.956;2022-09-28T14:41:59;15.07;;;14.18;;
22046;SDS011;11187;49.412;20.956;2022-09-28T14:48:04;13.32;;;12.50;;
22046;SDS011;11187;49.412;20.956;2022-09-28T14:50:57;15.00;;;14.15;;
22046;SDS011;11187;49.412;20.956;2022-09-28T14:59:56;15.27;;;14.38;;
22046;SDS011;11187;49.412;20.956;2022-09-28T15:02:32;14.98;;;14.07;;
22046;SDS011;11187;49.412;20.956;2022-09-28T15:05:23;14.00;;;13.20;;
22046;SDS011;11187;49.412;20.956;2022-09-28T15:08:00;13.25;;;12.35;;
22046;SDS011;11187;49.412;20.956;2022-09-28T15:10:53;15.18;;;14.07;;
22046;SDS011;11187;49.412;20.956;2022-09-28T15:13:50;16.90;;;15.90;;
22046;SDS011;11187;49.412;20.956;2022-09-28T15:16:58;15.35;;;14.10;;
22046;SDS011;11187;49.412;20.956;2022-09-28T15:20:00;15.27;;;14.27;;
22046;SDS011;11187;49.412;20.956;2022-09-28T15:22:44;16.60;;;15.38;;
22046;SDS011;11187;49.412;20.956;2022-09-28T15:25:39;12.82;;;12.02;;
22046;SDS011;11187;49.412;20.956;2022-09-28T15:28:34;12.98;;;12.10;;
22046;SDS011;11187;49.412;20.956;2022-09-28T15:31:29;15.45;;;14.55;;
22046;SDS011;11187;49.412;20.956;2022-09-28T15:34:33;13.38;;;12.38;;
22046;SDS011;11187;49.412;20.956;2022-09-28T15:37:23;13.02;;;11.90;;
22046;SDS011;11187;49.412;20.956;2022-09-28T15:40:26;15.73;;;14.73;;
22046;SDS011;11187;49.412;20.956;2022-09-28T15:43:24;13.98;;;13.13;;
22046;SDS011;11187;49.412;20.956;2022-09-28T15:46:19;14.07;;;13.02;;
22046;SDS011;11187;49.412;20.956;2022-09-28T15:49:56;14.35;;;13.55;;
22046;SDS011;11187;49.412;20.956;2022-09-28T15:52:38;14.23;;;13.43;;
22046;SDS011;11187;49.412;20.956;2022-09-28T15:55:30;13.48;;;12.68;;
22046;SDS011;11187;49.412;20.956;2022-09-28T16:01:19;15.07;;;14.07;;
22046;SDS011;11187;49.412;20.956;2022-09-28T16:03:58;14.32;;;13.43;;
22046;SDS011;11187;49.412;20.956;2022-09-28T16:06:44;18.30;;;16.60;;
22046;SDS011;11187;49.412;20.956;2022-09-28T16:13:12;14.63;;;13.43;;
22046;SDS011;11187;49.412;20.956;2022-09-28T16:15:58;15.88;;;14.65;;
22046;SDS011;11187;49.412;20.956;2022-09-28T16:18:46;13.80;;;12.85;;
22046;SDS011;11187;49.412;20.956;2022-09-28T16:21:35;15.60;;;14.35;;
22046;SDS011;11187;49.412;20.956;2022-09-28T16:24:34;13.57;;;12.48;;
22046;SDS011;11187;49.412;20.956;2022-09-28T16:27:26;12.65;;;11.85;;
22046;SDS011;11187;49.412;20.956;2022-09-28T16:30:32;12.93;;;12.02;;
22046;SDS011;11187;49.412;20.956;2022-09-28T16:33:28;9.68;;;8.88;;
22046;SDS011;11187;49.412;20.956;2022-09-28T16:36:11;12.20;;;11.23;;
22046;SDS011;11187;49.412;20.956;2022-09-28T16:38:59;15.77;;;14.85;;
22046;SDS011;11187;49.412;20.956;2022-09-28T16:41:32;17.08;;;15.38;;
22046;SDS011;11187;49.412;20.956;2022-09-28T16:44:28;17.95;;;13.73;;
22046;SDS011;11187;49.412;20.956;2022-09-28T16:47:22;16.20;;;14.90;;
22046;SDS011;11187;49.412;20.956;2022-09-28T16:50:19;15.00;;;14.00;;
22046;SDS011;11187;49.412;20.956;2022-09-28T16:52:58;14.90;;;13.43;;
22046;SDS011;11187;49.412;20.956;2022-09-28T16:56:14;13.23;;;12.27;;
22046;SDS011;11187;49.412;20.956;2022-09-28T16:59:08;14.95;;;13.43;;
22046;SDS011;11187;49.412;20.956;2022-09-28T17:01:42;15.77;;;14.25;;
22046;SDS011;11187;49.412;20.956;2022-09-28T17:04:28;15.18;;;13.98;;
22046;SDS011;11187;49.412;20.956;2022-09-28T17:07:01;14.82;;;13.43;;
22046;SDS011;11187;49.412;20.956;2022-09-28T17:09:55;12.18;;;11.25;;
22046;SDS011;11187;49.412;20.956;2022-09-28T17:12:28;12.80;;;11.88;;
22046;SDS011;11187;49.412;20.956;2022-09-28T17:15:15;14.60;;;13.60;;
22046;SDS011;11187;49.412;20.956;2022-09-28T17:17:51;14.13;;;13.10;;
22046;SDS011;11187;49.412;20.956;2022-09-28T17:20:45;13.93;;;13.00;;
22046;SDS011;11187;49.412;20.956;2022-09-28T17:23:42;13.20;;;12.30;;
22046;SDS011;11187;49.412;20.956;2022-09-28T17:26:17;13.25;;;12.35;;
22046;SDS011;11187;49.412;20.956;2022-09-28T17:29:15;15.82;;;14.15;;
22046;SDS011;11187;49.412;20.956;2022-09-28T17:31:50;16.50;;;15.00;;
22046;SDS011;11187;49.412;20.956;2022-09-28T17:34:36;13.90;;;13.00;;
22046;SDS011;11187;49.412;20.956;2022-09-28T17:37:21;12.27;;;11.38;;
22046;SDS011;11187;49.412;20.956;2022-09-28T17:40:22;14.40;;;13.40;;
22046;SDS011;11187;49.412;20.956;2022-09-28T17:42:58;15.60;;;14.50;;
22046;SDS011;11187;49.412;20.956;2022-09-28T17:45:44;13.30;;;12.38;;
22046;SDS011;11187;49.412;20.956;2022-09-28T17:48:39;15.65;;;14.55;;
22046;SDS011;11187;49.412;20.956;2022-09-28T17:51:34;14.65;;;13.65;;
22046;SDS011;11187;49.412;20.956;2022-09-28T17:54:11;12.20;;;11.40;;
22046;SDS011;11187;49.412;20.956;2022-09-28T17:56:59;15.07;;;13.93;;
22046;SDS011;11187;49.412;20.956;2022-09-28T17:59:33;16.90;;;15.52;;
22046;SDS011;11187;49.412;20.956;2022-09-28T18:02:19;18.08;;;15.30;;
22046;SDS011;11187;49.412;20.956;2022-09-28T18:04:53;15.70;;;14.20;;
22046;SDS011;11187;49.412;20.956;2022-09-28T18:07:47;16.85;;;15.57;;
22046;SDS011;11187;49.412;20.956;2022-09-28T18:10:43;15.77;;;14.48;;
22046;SDS011;11187;49.412;20.956;2022-09-28T18:13:37;17.10;;;15.60;;
22046;SDS011;11187;49.412;20.956;2022-09-28T18:16:11;17.25;;;16.00;;
22046;SDS011;11187;49.412;20.956;2022-09-28T18:19:07;16.20;;;15.00;;
22046;SDS011;11187;49.412;20.956;2022-09-28T18:22:01;16.27;;;14.88;;
22046;SDS011;11187;49.412;20.956;2022-09-28T18:24:35;17.52;;;16.13;;
22046;SDS011;11187;49.412;20.956;2022-09-28T18:27:21;14.88;;;13.77;;
22046;SDS011;11187;49.412;20.956;2022-09-28T18:29:55;16.00;;;14.73;;
22046;SDS011;11187;49.412;20.956;2022-09-28T18:32:49;19.65;;;17.85;;
22046;SDS011;11187;49.412;20.956;2022-09-28T18:35:23;17.40;;;15.70;;
22046;SDS011;11187;49.412;20.956;2022-09-28T18:38:16;16.17;;;14.68;;
22046;SDS011;11187;49.412;20.956;2022-09-28T18:41:13;17.45;;;16.15;;
22046;SDS011;11187;49.412;20.956;2022-09-28T18:44:07;19.77;;;18.10;;
22046;SDS011;11187;49.412;20.956;2022-09-28T18:47:02;17.15;;;15.68;;
22046;SDS011;11187;49.412;20.956;2022-09-28T18:49:58;19.40;;;17.65;;
22046;SDS011;11187;49.412;20.956;2022-09-28T18:52:34;19.50;;;17.77;;